Time;durP1;ratioP1;P1;durP2;ratioP2;P2;SDS_P1;SDS_P2;PMS_P1;PMS_P2;Temp;Humidity;BMP_temperature;BMP_pressure;BME280_temperature;BME280_humidity;BME280_pressure;Samples;Min_cycle;Max_cycle;Signal;HPM_P1;HPM_P2
2022/08/18 01:00:33;;;;;;;7.15;5.68;;;;;;;;;;5094832;27;20418;-88
2022/08/18 01:03:05;;;;;;;9.32;6.90;;;;;;;;;;5094138;28;20490;-88
2022/08/18 01:05:47;;;;;;;10.10;6.07;;;;;;;;;;5128243;27;20055;-88
2022/08/18 01:08:15;;;;;;;8.70;7.15;;;;;;;;;;5094500;28;20131;-88
2022/08/18 01:10:49;;;;;;;12.50;7.80;;;;;;;;;;5098859;28;20044;-89
2022/08/18 01:13:16;;;;;;;10.05;6.88;;;;;;;;;;5078560;28;20040;-89
2022/08/18 01:15:44;;;;;;;11.05;7.20;;;;;;;;;;5095874;28;20032;-89
2022/08/18 01:24:05;;;;;;;12.60;7.97;;;;;;;;;;5072737;28;20052;-95
2022/08/18 01:26:35;;;;;;;15.65;8.20;;;;;;;;;;5090385;28;20059;-95
2022/08/18 01:29:28;;;;;;;;;;;;;;;;;;5076887;28;20032;-95
2022/08/18 01:32:47;;;;;;;11.85;7.65;;;;;;;;;;5106952;28;19921;-95
2022/08/18 01:35:17;;;;;;;11.40;8.00;;;;;;;;;;5089257;28;20066;-95
2022/08/18 01:40:42;;;;;;;15.43;7.97;;;;;;;;;;5089690;28;20098;-96
2022/08/18 01:43:58;;;;;;;11.73;8.43;;;;;;;;;;5090018;28;20055;-95
2022/08/18 01:46:29;;;;;;;13.93;8.70;;;;;;;;;;5090482;28;20139;-90
2022/08/18 01:49:03;;;;;;;12.30;8.10;;;;;;;;;;5088138;28;20093;-95
2022/08/18 01:51:56;;;;;;;11.48;8.90;;;;;;;;;;5110499;28;20054;-95
2022/08/18 01:54:28;;;;;;;11.75;7.43;;;;;;;;;;5088691;28;20044;-96
2022/08/18 01:57:21;;;;;;;;;;;;;;;;;;5096125;28;20422;-95
2022/08/18 01:59:49;;;;;;;12.23;8.85;;;;;;;;;;5088327;28;19998;-96
2022/08/18 02:02:26;;;;;;;11.02;7.72;;;;;;;;;;5112941;28;20409;-95
2022/08/18 02:08:32;;;;;;;10.60;8.63;;;;;;;;;;5090576;28;20060;-89
2022/08/18 02:11:02;;;;;;;13.07;7.72;;;;;;;;;;5092478;28;20102;-89
2022/08/18 02:13:30;;;;;;;11.60;7.57;;;;;;;;;;5062001;28;20044;-89
2022/08/18 02:15:59;;;;;;;11.95;8.27;;;;;;;;;;5063698;28;20037;-95
2022/08/18 02:18:30;;;;;;;11.93;7.00;;;;;;;;;;5080716;28;20050;-89
2022/08/18 02:21:22;;;;;;;11.45;7.63;;;;;;;;;;5080900;28;20485;-89
2022/08/18 02:23:50;;;;;;;10.60;6.55;;;;;;;;;;5084709;28;20047;-89
2022/08/18 02:26:22;;;;;;;12.63;7.78;;;;;;;;;;5091249;28;20697;-89
2022/08/18 02:28:51;;;;;;;12.02;7.55;;;;;;;;;;5090423;28;20067;-89
2022/08/18 02:31:21;;;;;;;10.75;7.03;;;;;;;;;;5070428;28;20045;-89
2022/08/18 02:33:49;;;;;;;10.40;7.50;;;;;;;;;;5073544;28;20064;-88
2022/08/18 02:36:21;;;;;;;9.15;6.65;;;;;;;;;;5079607;28;20036;-89
2022/08/18 02:38:53;;;;;;;9.85;6.80;;;;;;;;;;5061756;28;20138;-95
2022/08/18 02:41:27;;;;;;;9.40;7.10;;;;;;;;;;5096102;28;20044;-95
2022/08/18 02:44:23;;;;;;;11.40;6.47;;;;;;;;;;5078050;28;20040;-96
2022/08/18 02:46:53;;;;;;;8.73;6.47;;;;;;;;;;5094631;28;20067;-89
2022/08/18 02:49:20;;;;;;;8.13;6.32;;;;;;;;;;5074812;28;20040;-89
2022/08/18 02:51:50;;;;;;;8.68;6.35;;;;;;;;;;5079393;28;20040;-89
2022/08/18 02:54:23;;;;;;;9.00;6.28;;;;;;;;;;5084451;28;20094;-89
2022/08/18 02:56:51;;;;;;;10.68;6.72;;;;;;;;;;5115718;27;20036;-96
2022/08/18 02:59:44;;;;;;;8.50;6.18;;;;;;;;;;5115988;27;20035;-96
2022/08/18 03:02:21;;;;;;;11.40;6.43;;;;;;;;;;5096408;28;20067;-95
2022/08/18 03:04:50;;;;;;;9.82;7.00;;;;;;;;;;5077649;28;20105;-96
2022/08/18 03:07:18;;;;;;;11.90;6.85;;;;;;;;;;5093948;28;20032;-95
2022/08/18 03:09:50;;;;;;;8.82;6.20;;;;;;;;;;5094490;28;20036;-96
2022/08/18 03:12:18;;;;;;;9.20;7.07;;;;;;;;;;5077070;28;20078;-96
2022/08/18 03:14:46;;;;;;;10.30;6.45;;;;;;;;;;5094137;28;20086;-96
2022/08/18 03:17:14;;;;;;;10.02;6.30;;;;;;;;;;5087745;28;20036;-89
2022/08/18 03:19:45;;;;;;;8.43;6.35;;;;;;;;;;5085430;28;20032;-89
2022/08/18 03:22:14;;;;;;;10.73;6.53;;;;;;;;;;5065947;28;20131;-89
2022/08/18 03:24:57;;;;;;;10.52;6.97;;;;;;;;;;5081375;28;20032;-89
2022/08/18 03:27:25;;;;;;;8.50;6.82;;;;;;;;;;5080869;28;20041;-89
2022/08/18 03:30:16;;;;;;;9.88;7.00;;;;;;;;;;5058600;28;20039;-89
2022/08/18 03:33:10;;;;;;;13.00;7.05;;;;;;;;;;5082905;28;20052;-89
2022/08/18 03:35:39;;;;;;;9.88;6.78;;;;;;;;;;5105503;28;20036;-89
2022/08/18 03:38:42;;;;;;;9.02;6.60;;;;;;;;;;5078920;28;20497;-96
2022/08/18 03:41:18;;;;;;;9.45;7.10;;;;;;;;;;5091369;28;20050;-96
2022/08/18 03:44:13;;;;;;;12.63;7.30;;;;;;;;;;5044973;28;20060;-96
2022/08/18 03:46:42;;;;;;;8.40;6.55;;;;;;;;;;5075643;28;20124;-95
2022/08/18 03:49:13;;;;;;;11.63;7.07;;;;;;;;;;5073051;28;20051;-95
2022/08/18 03:51:45;;;;;;;9.35;7.45;;;;;;;;;;5074320;28;20040;-95
2022/08/18 03:57:32;;;;;;;9.93;7.20;;;;;;;;;;5101868;28;20035;-95
2022/08/18 04:00:17;;;;;;;8.32;6.57;;;;;;;;;;5093643;28;20032;-95
2022/08/18 04:03:09;;;;;;;9.23;6.88;;;;;;;;;;5079951;28;20131;-95
2022/08/18 04:05:39;;;;;;;9.88;7.03;;;;;;;;;;5093063;28;20051;-95
2022/08/18 04:08:12;;;;;;;11.77;7.03;;;;;;;;;;5074860;28;20138;-95
2022/08/18 04:11:05;;;;;;;8.88;7.13;;;;;;;;;;5114014;27;20044;-95
2022/08/18 04:13:39;;;;;;;11.90;8.00;;;;;;;;;;5084572;28;20140;-94
2022/08/18 04:16:07;;;;;;;9.82;7.75;;;;;;;;;;5083393;28;20515;-88
2022/08/18 04:18:40;;;;;;;10.05;7.30;;;;;;;;;;5081904;28;20040;-93
2022/08/18 04:21:34;;;;;;;8.85;7.35;;;;;;;;;;5085354;28;20065;-94
2022/08/18 04:24:14;;;;;;;8.73;7.00;;;;;;;;;;5059859;28;20058;-94
2022/08/18 04:26:45;;;;;;;9.40;7.80;;;;;;;;;;5097069;28;20123;-95
2022/08/18 04:29:15;;;;;;;11.40;7.93;;;;;;;;;;5077268;28;20041;-94
2022/08/18 04:32:06;;;;;;;16.25;7.88;;;;;;;;;;5071525;28;20398;-95
2022/08/18 04:34:38;;;;;;;11.57;8.38;;;;;;;;;;5078774;28;20040;-94
2022/08/18 04:37:08;;;;;;;10.00;7.90;;;;;;;;;;5104064;28;20059;-94
2022/08/18 04:39:37;;;;;;;14.77;8.45;;;;;;;;;;5093553;28;20028;-94
2022/08/18 04:42:28;;;;;;;10.23;7.22;;;;;;;;;;5076096;28;20043;-94
2022/08/18 04:45:11;;;;;;;9.52;7.75;;;;;;;;;;5060597;28;20051;-94
2022/08/18 04:47:40;;;;;;;11.93;8.45;;;;;;;;;;5102632;28;20387;-94
2022/08/18 04:50:52;;;;;;;11.10;8.57;;;;;;;;;;5043344;28;20042;-94
2022/08/18 04:56:38;;;;;;;10.82;8.52;;;;;;;;;;5089794;28;20063;-90
2022/08/18 04:59:09;;;;;;;11.65;8.25;;;;;;;;;;5108298;28;20093;-94
2022/08/18 05:01:44;;;;;;;12.48;8.80;;;;;;;;;;5075653;28;20067;-95
2022/08/18 05:04:15;;;;;;;13.18;8.65;;;;;;;;;;5089424;28;20899;-94
2022/08/18 05:06:50;;;;;;;11.77;7.93;;;;;;;;;;5057025;28;20135;-87
2022/08/18 05:09:42;;;;;;;13.25;8.80;;;;;;;;;;5076960;28;20047;-87
2022/08/18 05:12:16;;;;;;;12.75;8.80;;;;;;;;;;5081501;28;20036;-87
2022/08/18 05:14:46;;;;;;;14.82;9.07;;;;;;;;;;5074974;28;20486;-84
2022/08/18 05:17:18;;;;;;;11.05;8.57;;;;;;;;;;5077632;28;20071;-93
2022/08/18 05:19:46;;;;;;;16.25;8.93;;;;;;;;;;5059605;28;20052;-94
2022/08/18 05:22:19;;;;;;;12.00;8.65;;;;;;;;;;5089750;28;20131;-94
2022/08/18 05:24:57;;;;;;;11.48;8.80;;;;;;;;;;5093316;28;20048;-95
2022/08/18 05:27:29;;;;;;;13.50;9.02;;;;;;;;;;5073189;28;20141;-88
2022/08/18 05:30:03;;;;;;;12.65;9.05;;;;;;;;;;5096957;28;20032;-88
2022/08/18 05:32:38;;;;;;;12.05;8.88;;;;;;;;;;5079827;28;20049;-87
2022/08/18 05:35:32;;;;;;;11.90;8.70;;;;;;;;;;5082508;28;20043;-87
2022/08/18 05:39:05;;;;;;;12.18;8.43;;;;;;;;;;5115770;27;20048;-87
2022/08/18 05:41:36;;;;;;;14.73;9.15;;;;;;;;;;5116982;27;20040;-87
2022/08/18 05:44:14;;;;;;;13.32;8.65;;;;;;;;;;5100035;28;20059;-87
2022/08/18 05:47:13;;;;;;;14.05;9.98;;;;;;;;;;5100869;28;20812;-88
2022/08/18 05:49:44;;;;;;;12.05;9.15;;;;;;;;;;5082443;28;20257;-87
2022/08/18 05:52:21;;;;;;;15.18;10.00;;;;;;;;;;5075681;28;20055;-88
2022/08/18 05:58:04;;;;;;;;;;;;;;;;;;5095345;28;20048;-88
2022/08/18 06:01:04;;;;;;;12.98;9.07;;;;;;;;;;5072757;28;20372;-88
2022/08/18 06:03:44;;;;;;;13.05;9.75;;;;;;;;;;5086421;28;20100;-88
2022/08/18 06:06:18;;;;;;;14.98;9.55;;;;;;;;;;5084943;28;20052;-88
2022/08/18 06:09:21;;;;;;;12.80;9.50;;;;;;;;;;5074802;28;20040;-94
2022/08/18 06:12:21;;;;;;;12.98;9.40;;;;;;;;;;5074881;28;20170;-95
2022/08/18 06:14:49;;;;;;;15.20;10.02;;;;;;;;;;5041818;28;20067;-94
2022/08/18 06:17:40;;;;;;;16.13;10.77;;;;;;;;;;5048761;28;20048;-88
2022/08/18 06:20:31;;;;;;;;;;;;;;;;;;5075182;28;20052;-88
2022/08/18 06:23:19;;;;;;;12.60;9.55;;;;;;;;;;5073776;28;19920;-88
2022/08/18 06:25:58;;;;;;;16.45;9.45;;;;;;;;;;5088116;28;20126;-88
2022/08/18 06:28:40;;;;;;;15.15;10.30;;;;;;;;;;5059314;28;20051;-88
2022/08/18 06:31:51;;;;;;;16.67;10.43;;;;;;;;;;5086584;28;20039;-88
2022/08/18 06:35:10;;;;;;;12.63;9.40;;;;;;;;;;5039632;28;20052;-88
2022/08/18 06:40:35;;;;;;;;;;;;;;;;;;4997768;28;20042;-94
2022/08/18 06:43:13;;;;;;;20.35;11.05;;;;;;;;;;4997191;28;19921;-95
2022/08/18 06:45:50;;;;;;;13.93;10.38;;;;;;;;;;5013515;28;20061;-94
2022/08/18 06:48:35;;;;;;;15.25;11.05;;;;;;;;;;4993213;28;20101;-89
2022/08/18 06:51:16;;;;;;;15.55;12.00;;;;;;;;;;5009517;28;20595;-89
2022/08/18 06:54:07;;;;;;;15.82;11.85;;;;;;;;;;4992075;28;20056;-89
2022/08/18 06:56:37;;;;;;;18.98;12.32;;;;;;;;;;4978582;28;20128;-95
2022/08/18 06:59:35;;;;;;;;;;;;;;;;;;5009901;28;20428;-88
2022/08/18 07:02:23;;;;;;;19.15;12.82;;;;;;;;;;4991627;28;19976;-88
2022/08/18 07:05:06;;;;;;;18.77;12.65;;;;;;;;;;5018722;28;20076;-88
2022/08/18 07:07:40;;;;;;;21.23;13.63;;;;;;;;;;5033380;28;20080;-94
2022/08/18 07:10:14;;;;;;;19.75;13.07;;;;;;;;;;5045258;28;20037;-94
2022/08/18 07:12:51;;;;;;;19.17;14.20;;;;;;;;;;5015788;28;20443;-95
2022/08/18 07:15:26;;;;;;;21.48;14.07;;;;;;;;;;5065457;28;20070;-94
2022/08/18 07:18:03;;;;;;;21.73;15.32;;;;;;;;;;5084276;28;20036;-94
2022/08/18 07:21:00;;;;;;;22.23;15.15;;;;;;;;;;5055067;28;20055;-93
2022/08/18 07:23:39;;;;;;;;;;;;;;;;;;5054936;28;20056;-93
2022/08/18 07:26:15;;;;;;;20.80;15.50;;;;;;;;;;5074975;28;19924;-87
2022/08/18 07:28:43;;;;;;;26.88;17.05;;;;;;;;;;5088921;27;20071;-96
2022/08/18 07:31:33;;;;;;;32.28;20.88;;;;;;;;;;5073882;28;20062;-95
2022/08/18 07:34:17;;;;;;;32.65;22.83;;;;;;;;;;5060102;28;20040;-96
2022/08/18 07:37:26;;;;;;;36.13;22.95;;;;;;;;;;5059391;28;20036;-92
2022/08/18 07:40:30;;;;;;;35.78;19.90;;;;;;;;;;5079259;28;20090;-91
2022/08/18 07:43:07;;;;;;;35.63;21.63;;;;;;;;;;5096895;28;20044;-88
2022/08/18 07:45:45;;;;;;;38.58;21.23;;;;;;;;;;5099005;28;20493;-88
2022/08/18 07:48:27;;;;;;;35.58;22.08;;;;;;;;;;5102918;28;20106;-88
2022/08/18 07:51:22;;;;;;;43.80;22.38;;;;;;;;;;5082329;28;20033;-88
2022/08/18 07:54:09;;;;;;;43.75;21.25;;;;;;;;;;5101052;28;20456;-87
2022/08/18 07:57:39;;;;;;;43.78;21.38;;;;;;;;;;5077977;28;20063;-88
2022/08/18 08:00:27;;;;;;;46.63;21.70;;;;;;;;;;5083612;28;20036;-88
2022/08/18 08:03:43;;;;;;;39.88;21.17;;;;;;;;;;5078984;28;20045;-88
2022/08/18 08:06:24;;;;;;;38.67;20.42;;;;;;;;;;5094598;28;20064;-88
2022/08/18 08:09:45;;;;;;;37.42;20.25;;;;;;;;;;5073531;28;20098;-96
2022/08/18 08:12:58;;;;;;;39.42;19.58;;;;;;;;;;5057602;28;20072;-96
2022/08/18 08:16:39;;;;;;;35.92;19.40;;;;;;;;;;5062121;28;20049;-95
2022/08/18 08:19:09;;;;;;;37.58;20.15;;;;;;;;;;5019399;28;20056;-96
2022/08/18 08:22:36;;;;;;;36.58;21.75;;;;;;;;;;5038976;28;20515;-96
2022/08/18 08:25:25;;;;;;;40.17;20.27;;;;;;;;;;5034040;28;20148;-96
2022/08/18 08:28:21;;;;;;;34.72;20.48;;;;;;;;;;5070491;28;20048;-96
2022/08/18 08:31:23;;;;;;;35.53;19.92;;;;;;;;;;5038611;28;20049;-95
2022/08/18 08:34:59;;;;;;;39.53;21.25;;;;;;;;;;5044789;28;20052;-96
2022/08/18 08:37:41;;;;;;;37.85;20.00;;;;;;;;;;5054414;28;20092;-96
2022/08/18 08:40:36;;;;;;;37.72;20.98;;;;;;;;;;5038670;28;20041;-96
2022/08/18 08:43:20;;;;;;;40.90;22.05;;;;;;;;;;5064480;28;20125;-96
2022/08/18 08:46:18;;;;;;;38.63;19.98;;;;;;;;;;5056670;28;20421;-96
2022/08/18 08:49:26;;;;;;;44.22;23.05;;;;;;;;;;5060062;28;20040;-96
2022/08/18 08:52:54;;;;;;;44.13;21.70;;;;;;;;;;5072245;28;20055;-96
2022/08/18 08:55:27;;;;;;;;;;;;;;;;;;5072504;28;20102;-96
2022/08/18 08:58:34;;;;;;;52.33;24.98;;;;;;;;;;5062860;28;19920;-88
2022/08/18 09:01:15;;;;;;;52.75;22.75;;;;;;;;;;5043731;28;20051;-88
2022/08/18 09:05:01;;;;;;;69.25;30.48;;;;;;;;;;5058651;28;20510;-87
2022/08/18 09:08:17;;;;;;;43.67;21.25;;;;;;;;;;5066127;28;20041;-88
2022/08/18 09:11:29;;;;;;;43.53;20.50;;;;;;;;;;5061607;28;20217;-87
2022/08/18 09:14:41;;;;;;;40.25;19.17;;;;;;;;;;5023911;28;20486;-88
2022/08/18 09:17:28;;;;;;;35.65;17.77;;;;;;;;;;5029791;28;20044;-96
2022/08/18 09:20:24;;;;;;;36.90;18.77;;;;;;;;;;5007497;28;20049;-96
2022/08/18 09:23:23;;;;;;;32.42;16.60;;;;;;;;;;5022343;28;20052;-96
2022/08/18 09:26:43;;;;;;;29.38;17.10;;;;;;;;;;5025978;28;20041;-89
2022/08/18 09:29:25;;;;;;;31.38;17.45;;;;;;;;;;5068611;28;20045;-88
2022/08/18 09:32:19;;;;;;;37.55;18.08;;;;;;;;;;5066374;28;20037;-88
2022/08/18 09:36:05;;;;;;;33.95;17.00;;;;;;;;;;5043786;28;20037;-88
2022/08/18 09:42:15;;;;;;;30.05;17.17;;;;;;;;;;5032707;28;20056;-87
2022/08/18 09:44:47;;;;;;;31.88;17.70;;;;;;;;;;5051202;28;20407;-88
2022/08/18 09:47:19;;;;;;;31.83;16.13;;;;;;;;;;5052907;28;20115;-88
2022/08/18 09:50:05;;;;;;;30.48;17.25;;;;;;;;;;5051603;28;20053;-88
2022/08/18 09:53:22;;;;;;;26.48;15.30;;;;;;;;;;5054330;28;20165;-88
2022/08/18 09:55:54;;;;;;;28.05;15.63;;;;;;;;;;5035026;28;20079;-88
2022/08/18 09:59:00;;;;;;;32.63;18.50;;;;;;;;;;5052508;28;20044;-88
2022/08/18 10:02:10;;;;;;;27.25;15.95;;;;;;;;;;5049703;28;20160;-88
2022/08/18 10:05:19;;;;;;;24.05;14.75;;;;;;;;;;5029211;28;20057;-88
2022/08/18 10:08:16;;;;;;;31.10;16.42;;;;;;;;;;5048593;28;20128;-88
2022/08/18 10:11:17;;;;;;;27.92;16.45;;;;;;;;;;5015103;28;20073;-88
2022/08/18 10:13:55;;;;;;;25.27;16.63;;;;;;;;;;5034469;28;20052;-88
2022/08/18 10:16:39;;;;;;;29.90;18.33;;;;;;;;;;5088036;28;20044;-88
2022/08/18 10:19:41;;;;;;;27.52;18.45;;;;;;;;;;5101216;27;20132;-88
2022/08/18 10:22:32;;;;;;;32.42;18.38;;;;;;;;;;5087552;28;20116;-89
2022/08/18 10:25:13;;;;;;;;;;;;;;;;;;;;;
2022/08/18 10:28:27;;;;;;;29.45;16.85;;;;;;;;;;5099616;28;20056;-90
2022/08/18 10:31:28;;;;;;;29.25;17.30;;;;;;;;;;5074383;28;20048;-90
2022/08/18 10:35:02;;;;;;;30.00;17.67;;;;;;;;;;5034073;28;20057;-90
2022/08/18 10:37:58;;;;;;;27.10;17.70;;;;;;;;;;5005171;28;20052;-96
2022/08/18 10:40:31;;;;;;;33.33;18.88;;;;;;;;;;5037245;28;20061;-96
2022/08/18 10:43:39;;;;;;;31.60;17.92;;;;;;;;;;5040295;28;20046;-96
2022/08/18 10:46:24;;;;;;;27.70;17.33;;;;;;;;;;5001311;28;20049;-91
2022/08/18 10:49:06;;;;;;;30.02;16.80;;;;;;;;;;5052897;28;20075;-96
2022/08/18 10:52:11;;;;;;;30.65;17.80;;;;;;;;;;5052663;28;20044;-95
2022/08/18 10:55:20;;;;;;;26.33;17.90;;;;;;;;;;5034646;28;20332;-96
2022/08/18 10:58:05;;;;;;;26.02;16.55;;;;;;;;;;5013970;28;20199;-89
2022/08/18 11:00:52;;;;;;;25.48;15.77;;;;;;;;;;5044937;28;20041;-89
2022/08/18 11:04:21;;;;;;;24.15;16.10;;;;;;;;;;5057297;28;20053;-90
2022/08/18 11:07:14;;;;;;;27.38;16.33;;;;;;;;;;5030093;28;21954;-89
2022/08/18 11:09:48;;;;;;;23.45;15.85;;;;;;;;;;5087649;27;20049;-89
2022/08/18 11:12:45;;;;;;;26.58;17.50;;;;;;;;;;5078517;28;20044;-89
2022/08/18 11:15:48;;;;;;;22.45;15.77;;;;;;;;;;5081221;28;20047;-90
2022/08/18 11:18:40;;;;;;;24.70;15.27;;;;;;;;;;5062791;28;20048;-90
2022/08/18 11:21:31;;;;;;;23.45;15.45;;;;;;;;;;5081533;28;20036;-89
2022/08/18 11:24:27;;;;;;;22.38;15.73;;;;;;;;;;5087560;28;20951;-89
2022/08/18 11:26:56;;;;;;;21.95;15.80;;;;;;;;;;5082745;28;20060;-96
2022/08/18 11:29:34;;;;;;;27.73;17.08;;;;;;;;;;5060870;28;20131;-95
2022/08/18 11:32:26;;;;;;;19.30;14.77;;;;;;;;;;5079258;28;20047;-96
2022/08/18 11:35:17;;;;;;;25.23;15.18;;;;;;;;;;5074458;28;20041;-96
2022/08/18 11:37:59;;;;;;;19.38;13.07;;;;;;;;;;5074155;28;20044;-96
2022/08/18 11:40:41;;;;;;;19.15;13.98;;;;;;;;;;5091663;28;20040;-96
2022/08/18 11:43:58;;;;;;;22.27;13.27;;;;;;;;;;5063393;28;20047;-95
2022/08/18 11:46:39;;;;;;;16.40;11.73;;;;;;;;;;5058795;28;20048;-90
2022/08/18 11:49:34;;;;;;;20.70;13.25;;;;;;;;;;5094253;28;20036;-96
2022/08/18 11:52:27;;;;;;;19.10;12.07;;;;;;;;;;5076715;28;20113;-96
2022/08/18 11:55:21;;;;;;;21.45;13.65;;;;;;;;;;5078251;28;20032;-96
2022/08/18 11:57:55;;;;;;;16.55;11.23;;;;;;;;;;5062503;28;20040;-96
2022/08/18 12:00:56;;;;;;;14.00;10.93;;;;;;;;;;5086487;28;20509;-96
2022/08/18 12:03:43;;;;;;;16.73;10.40;;;;;;;;;;5072193;28;20044;-96
2022/08/18 12:06:20;;;;;;;13.23;9.45;;;;;;;;;;5090674;28;20467;-96
2022/08/18 12:09:25;;;;;;;12.23;8.93;;;;;;;;;;5099272;27;20042;-89
2022/08/18 12:12:23;;;;;;;13.07;9.02;;;;;;;;;;5072604;28;20028;-89
2022/08/18 12:15:15;;;;;;;17.20;10.13;;;;;;;;;;5046922;28;20036;-89
2022/08/18 12:18:02;;;;;;;14.27;9.40;;;;;;;;;;5084864;28;20556;-96
2022/08/18 12:20:32;;;;;;;14.85;9.35;;;;;;;;;;5089519;28;20043;-96
2022/08/18 12:23:08;;;;;;;13.70;9.30;;;;;;;;;;5073289;28;20036;-96
2022/08/18 12:25:39;;;;;;;10.50;7.90;;;;;;;;;;5072732;28;20041;-96
2022/08/18 12:28:20;;;;;;;13.15;8.25;;;;;;;;;;5061951;28;20063;-90
2022/08/18 12:30:52;;;;;;;12.65;7.60;;;;;;;;;;5069019;28;20036;-89
2022/08/18 12:33:27;;;;;;;12.10;7.23;;;;;;;;;;5070703;28;20040;-89
2022/08/18 12:36:28;;;;;;;11.02;7.43;;;;;;;;;;5083432;28;20040;-91
2022/08/18 12:39:23;;;;;;;12.43;7.88;;;;;;;;;;5070835;28;20056;-89
2022/08/18 12:42:17;;;;;;;14.07;8.40;;;;;;;;;;5104157;28;20020;-89
2022/08/18 12:45:16;;;;;;;18.90;9.60;;;;;;;;;;5076295;28;20074;-89
2022/08/18 12:47:50;;;;;;;15.23;9.77;;;;;;;;;;5056348;28;20589;-96
2022/08/18 12:50:22;;;;;;;18.73;10.70;;;;;;;;;;5072629;28;20041;-96
2022/08/18 12:53:07;;;;;;;15.23;9.27;;;;;;;;;;5041730;28;20517;-96
2022/08/18 12:55:40;;;;;;;14.23;9.55;;;;;;;;;;5072299;28;20079;-96
2022/08/18 12:58:12;;;;;;;16.63;8.63;;;;;;;;;;5057383;28;20494;-96
2022/08/18 13:01:11;;;;;;;11.35;7.78;;;;;;;;;;5072359;28;20032;-96
2022/08/18 13:03:38;;;;;;;9.77;7.53;;;;;;;;;;5088837;28;20053;-95
2022/08/18 13:06:08;;;;;;;10.15;7.53;;;;;;;;;;5083796;28;20052;-88
2022/08/18 13:09:05;;;;;;;11.13;7.57;;;;;;;;;;5072636;28;20042;-95
2022/08/18 13:11:44;;;;;;;14.18;7.65;;;;;;;;;;5076324;28;20064;-93
2022/08/18 13:14:14;;;;;;;10.23;7.75;;;;;;;;;;5079507;28;20066;-96
2022/08/18 13:17:19;;;;;;;13.70;7.78;;;;;;;;;;5075662;28;20035;-90
2022/08/18 13:20:24;;;;;;;12.93;7.32;;;;;;;;;;5080229;28;20036;-90
2022/08/18 13:23:16;;;;;;;10.38;6.97;;;;;;;;;;5110602;28;20075;-90
2022/08/18 13:25:54;;;;;;;9.00;6.95;;;;;;;;;;5092503;28;20035;-89
2022/08/18 13:28:58;;;;;;;9.75;7.05;;;;;;;;;;5079662;28;20040;-96
2022/08/18 13:31:26;;;;;;;14.40;6.90;;;;;;;;;;5075276;28;20120;-95
2022/08/18 13:33:59;;;;;;;10.27;7.30;;;;;;;;;;5092419;28;20361;-95
2022/08/18 13:36:46;;;;;;;12.55;7.63;;;;;;;;;;5106938;28;20036;-95
2022/08/18 13:39:17;;;;;;;10.20;7.95;;;;;;;;;;5071676;28;20494;-96
2022/08/18 13:41:52;;;;;;;9.95;7.32;;;;;;;;;;5089208;28;20082;-96
2022/08/18 13:44:21;;;;;;;10.70;7.20;;;;;;;;;;5071965;28;20044;-96
2022/08/18 13:47:16;;;;;;;9.23;6.70;;;;;;;;;;5093320;28;20085;-89
2022/08/18 13:49:46;;;;;;;8.95;7.32;;;;;;;;;;5094117;28;20050;-89
2022/08/18 13:52:26;;;;;;;10.25;7.38;;;;;;;;;;5081593;28;20119;-89
2022/08/18 13:55:17;;;;;;;11.10;6.65;;;;;;;;;;5074728;28;20028;-89
2022/08/18 13:57:47;;;;;;;13.55;7.75;;;;;;;;;;5092900;28;20043;-96
2022/08/18 14:03:23;;;;;;;;;;;;;;;;;;5075611;28;20040;-96
2022/08/18 14:06:40;;;;;;;13.73;6.70;;;;;;;;;;5088987;28;19931;-89
2022/08/18 14:09:25;;;;;;;10.75;7.60;;;;;;;;;;5061324;28;20048;-95
2022/08/18 14:12:23;;;;;;;9.95;6.55;;;;;;;;;;5076370;28;20508;-95
2022/08/18 14:15:26;;;;;;;8.35;6.32;;;;;;;;;;5063438;28;20063;-96
2022/08/18 14:26:47;;;;;;;9.80;6.65;;;;;;;;;;5099590;28;20053;-96
2022/08/18 14:27:30;;;;;;;10.38;6.30;;;;;;;;;;5088729;28;20111;-90
2022/08/18 14:30:11;;;;;;;7.43;5.78;;;;;;;;;;5075851;28;20052;-90
2022/08/18 14:33:13;;;;;;;10.85;6.55;;;;;;;;;;5085425;28;20462;-89
2022/08/18 14:35:41;;;;;;;7.15;5.68;;;;;;;;;;5098874;28;20489;-90
2022/08/18 14:38:35;;;;;;;9.15;5.93;;;;;;;;;;5078628;28;20104;-90
2022/08/18 14:41:33;;;;;;;8.43;6.07;;;;;;;;;;5084041;28;20064;-90
2022/08/18 14:44:26;;;;;;;8.95;6.15;;;;;;;;;;5085729;28;20118;-89
2022/08/18 14:46:58;;;;;;;9.68;5.75;;;;;;;;;;5090030;28;20064;-89
2022/08/18 14:49:27;;;;;;;10.52;6.68;;;;;;;;;;5079745;28;20040;-91
2022/08/18 14:51:58;;;;;;;11.95;8.70;;;;;;;;;;5078189;28;20043;-90
2022/08/18 14:54:27;;;;;;;10.25;7.80;;;;;;;;;;5085950;28;20539;-90
2022/08/18 14:57:01;;;;;;;13.80;8.80;;;;;;;;;;5094888;28;20048;-90
2022/08/18 14:59:29;;;;;;;11.30;7.78;;;;;;;;;;5088052;28;20128;-90
2022/08/18 15:11:23;;;;;;;14.23;8.45;;;;;;;;;;5132486;27;20034;-94
2022/08/18 15:16:49;;;;;;;14.25;10.23;;;;;;;;;;5088015;28;20076;-89
2022/08/18 15:19:23;;;;;;;12.35;10.13;;;;;;;;;;5123356;27;20102;-90
2022/08/18 15:27:51;;;;;;;16.08;9.20;;;;;;;;;;5095860;28;20093;-90
2022/08/18 15:30:44;;;;;;;13.43;9.45;;;;;;;;;;5074356;28;20501;-90
2022/08/18 15:33:23;;;;;;;12.10;8.57;;;;;;;;;;5084114;27;20039;-90
2022/08/18 15:36:20;;;;;;;11.48;8.90;;;;;;;;;;5103573;28;20784;-95
2022/08/18 15:38:58;;;;;;;10.15;7.95;;;;;;;;;;5099574;27;20053;-90
2022/08/18 15:41:52;;;;;;;15.00;9.20;;;;;;;;;;5093018;27;20468;-89
2022/08/18 15:44:29;;;;;;;12.82;8.98;;;;;;;;;;5114216;27;20481;-89
2022/08/18 15:47:03;;;;;;;11.88;7.97;;;;;;;;;;5127276;27;20130;-96
2022/08/18 15:49:36;;;;;;;11.77;8.07;;;;;;;;;;5098057;27;20047;-96
2022/08/18 15:52:05;;;;;;;12.50;8.10;;;;;;;;;;5096560;28;20043;-96
2022/08/18 15:54:41;;;;;;;9.20;6.60;;;;;;;;;;5097703;28;20046;-96
2022/08/18 15:57:10;;;;;;;10.77;7.50;;;;;;;;;;5114470;27;20051;-96
2022/08/18 16:00:05;;;;;;;11.10;7.15;;;;;;;;;;5079532;28;20039;-96
2022/08/18 16:02:40;;;;;;;9.73;7.20;;;;;;;;;;5112689;28;20047;-96
2022/08/18 16:05:47;;;;;;;10.57;6.60;;;;;;;;;;5102072;28;20040;-96
2022/08/18 16:08:18;;;;;;;14.60;7.57;;;;;;;;;;5119532;27;20043;-89
2022/08/18 16:11:14;;;;;;;7.97;6.30;;;;;;;;;;5117481;27;20398;-89
2022/08/18 16:14:03;;;;;;;10.70;6.75;;;;;;;;;;5102149;27;20096;-94
2022/08/18 16:16:30;;;;;;;13.52;7.55;;;;;;;;;;5122891;27;20043;-90
2022/08/18 16:19:10;;;;;;;10.32;7.18;;;;;;;;;;5124286;27;20039;-88
2022/08/18 16:21:38;;;;;;;9.52;7.30;;;;;;;;;;5139809;27;20104;-88
2022/08/18 16:24:08;;;;;;;9.85;6.60;;;;;;;;;;5103597;27;20073;-85
2022/08/18 16:26:36;;;;;;;9.98;7.05;;;;;;;;;;5109460;27;20043;-86
2022/08/18 16:29:35;;;;;;;10.05;7.03;;;;;;;;;;5119122;27;20036;-86
2022/08/18 16:32:05;;;;;;;9.02;6.40;;;;;;;;;;5112608;27;20120;-86
2022/08/18 16:34:51;;;;;;;15.15;6.35;;;;;;;;;;5124536;27;20031;-87
2022/08/18 16:37:18;;;;;;;11.57;6.25;;;;;;;;;;5121371;27;20119;-87
2022/08/18 16:39:49;;;;;;;9.38;5.90;;;;;;;;;;5136341;27;20843;-87
2022/08/18 16:42:16;;;;;;;8.40;6.18;;;;;;;;;;5123362;27;20976;-87
2022/08/18 16:44:47;;;;;;;9.65;5.80;;;;;;;;;;5070283;27;20055;-88
2022/08/18 16:47:18;;;;;;;10.02;5.68;;;;;;;;;;5094334;28;20496;-95
2022/08/18 16:49:49;;;;;;;9.80;5.40;;;;;;;;;;5082495;28;20047;-95
2022/08/18 16:52:25;;;;;;;8.93;4.95;;;;;;;;;;5100260;28;20039;-96
2022/08/18 16:55:08;;;;;;;7.50;4.77;;;;;;;;;;5132550;28;20039;-95
2022/08/18 17:06:26;;;;;;;8.95;5.32;;;;;;;;;;5135445;27;20047;-95
2022/08/18 17:09:03;;;;;;;9.40;5.05;;;;;;;;;;5095912;28;20096;-95
2022/08/18 17:12:06;;;;;;;10.05;5.13;;;;;;;;;;5100459;28;20035;-94
2022/08/18 17:14:47;;;;;;;12.45;5.57;;;;;;;;;;5095969;28;20055;-94
2022/08/18 17:17:19;;;;;;;7.28;4.88;;;;;;;;;;5101101;28;20123;-95
2022/08/18 17:19:47;;;;;;;8.18;5.43;;;;;;;;;;5096950;28;20055;-95
2022/08/18 17:22:17;;;;;;;10.80;5.70;;;;;;;;;;5099217;28;20036;-95
2022/08/18 17:27:46;;;;;;;7.25;5.05;;;;;;;;;;5094841;28;20048;-95
2022/08/18 17:30:47;;;;;;;10.55;5.68;;;;;;;;;;5094717;28;20568;-94
2022/08/18 17:33:22;;;;;;;11.80;5.38;;;;;;;;;;5129445;27;20071;-95
2022/08/18 17:36:45;;;;;;;8.85;4.85;;;;;;;;;;5089562;27;20037;-90
2022/08/18 17:39:36;;;;;;;9.05;5.43;;;;;;;;;;5116677;27;20126;-95
2022/08/18 17:42:32;;;;;;;9.00;5.50;;;;;;;;;;5119597;27;20044;-95
2022/08/18 17:45:06;;;;;;;13.77;5.75;;;;;;;;;;5142509;27;20545;-95
2022/08/18 17:47:45;;;;;;;10.32;5.80;;;;;;;;;;5088898;27;20039;-88
2022/08/18 17:53:37;;;;;;;11.05;5.40;;;;;;;;;;5123061;27;20076;-88
2022/08/18 17:56:14;;;;;;;8.15;5.35;;;;;;;;;;5082422;27;20047;-94
2022/08/18 17:58:51;;;;;;;12.73;5.45;;;;;;;;;;5136401;27;20051;-95
2022/08/18 18:01:43;;;;;;;9.35;5.13;;;;;;;;;;5119549;27;20043;-95
2022/08/18 18:04:13;;;;;;;8.48;5.43;;;;;;;;;;5117055;28;20039;-96
2022/08/18 18:06:51;;;;;;;9.68;5.40;;;;;;;;;;5097501;27;20047;-89
2022/08/18 18:09:33;;;;;;;7.45;5.35;;;;;;;;;;5095389;28;20139;-88
2022/08/18 18:12:28;;;;;;;10.18;5.85;;;;;;;;;;5100793;27;20050;-89
2022/08/18 18:15:10;;;;;;;10.52;5.28;;;;;;;;;;5108037;27;20047;-88
2022/08/18 18:17:41;;;;;;;9.73;6.45;;;;;;;;;;5110340;27;20123;-88
2022/08/18 18:20:31;;;;;;;11.35;5.55;;;;;;;;;;5094597;27;20058;-88
2022/08/18 18:23:32;;;;;;;11.25;5.47;;;;;;;;;;5098857;27;20045;-89
2022/08/18 18:26:27;;;;;;;9.90;5.43;;;;;;;;;;5110982;27;20462;-89